Terminal Aerodrome Forecast
Issued by NWS Springfield, MO

Home | Current Version | Previous Version | Text Only | Print | Product List | Glossary On
Versions: 1 2 3 4 5 6 7 8 9 10 11 12 13 14 15 16 17 18 19 20 21 22 23
000
FTUS43 KSGF 151100 AAB
TAFSGF
TAF AMD
KSGF 151100Z 1511/1606 15017G26KT P6SM SCT010 BKN090
      TEMPO 1511/1514 BKN009
     FM151500 21018G25KT P6SM SCT025 BKN100
     FM152000 24018G25KT P6SM BKN100
     FM160000 28015G22KT P6SM BKN050=

USA.gov is the U.S. government's official web portal to all federal, state and local government web resources and services.